Time;durP1;ratioP1;P1;durP2;ratioP2;P2;SDS_P1;SDS_P2;PMS_P1;PMS_P2;Temp;Humidity;BMP_temperature;BMP_pressure;BME280_temperature;BME280_humidity;BME280_pressure;Samples;Min_cycle;Max_cycle;Signal;HPM_P1;HPM_P2
2021/01/25 00:01:04;;;;;;;11.93;6.45;;;;;;;-145.48;100.00;59605.97;6244180;23;20064;-82
2021/01/25 00:03:29;;;;;;;8.45;5.60;;;;;;;-145.48;100.00;59605.97;6244319;23;20007;-80
2021/01/25 00:05:55;;;;;;;10.18;6.30;;;;;;;-145.48;100.00;59605.97;6241935;23;20079;-81
2021/01/25 00:08:20;;;;;;;10.63;6.75;;;;;;;-145.48;100.00;59605.97;6241823;23;20011;-80
2021/01/25 00:10:45;;;;;;;14.63;7.82;;;;;;;-145.48;100.00;59605.97;6243881;23;20023;-81
2021/01/25 00:13:10;;;;;;;9.65;6.18;;;;;;;-145.48;100.00;59605.97;6244790;23;20011;-82
2021/01/25 00:15:36;;;;;;;10.40;6.75;;;;;;;-145.48;100.00;59605.97;6219209;23;20004;-82
2021/01/25 00:18:01;;;;;;;9.20;6.43;;;;;;;-145.48;100.00;59605.97;6245116;23;20008;-81
2021/01/25 00:20:26;;;;;;;12.13;6.63;;;;;;;-145.48;100.00;59605.97;6243548;23;20008;-81
2021/01/25 00:22:52;;;;;;;10.82;7.00;;;;;;;-145.48;100.00;59605.97;6244740;23;20014;-79
2021/01/25 00:25:17;;;;;;;10.75;7.38;;;;;;;-145.48;100.00;59605.97;6218196;23;20026;-79
2021/01/25 00:27:42;;;;;;;9.63;6.35;;;;;;;-145.48;100.00;59605.97;6218119;23;20111;-80
2021/01/25 00:30:14;;;;;;;10.65;7.25;;;;;;;-145.48;100.00;59605.97;6244611;23;20000;-79
2021/01/25 00:32:39;;;;;;;10.70;6.47;;;;;;;-145.48;100.00;59605.97;6245795;23;20015;-81
2021/01/25 00:35:05;;;;;;;13.55;6.75;;;;;;;-145.48;100.00;59605.97;6221125;23;20075;-81
2021/01/25 00:37:30;;;;;;;13.40;7.07;;;;;;;-145.48;100.00;59605.97;6246129;23;20426;-80
2021/01/25 00:39:55;;;;;;;9.45;6.90;;;;;;;-145.48;100.00;59605.97;6217944;23;20426;-80
2021/01/25 00:42:20;;;;;;;8.75;6.50;;;;;;;-145.48;100.00;59605.97;6246528;23;20000;-81
2021/01/25 00:44:46;;;;;;;9.15;5.30;;;;;;;-145.48;100.00;59605.97;6243163;23;20059;-80
2021/01/25 00:47:11;;;;;;;7.75;5.90;;;;;;;-145.48;100.00;59605.97;6243376;23;20446;-80
2021/01/25 00:49:36;;;;;;;10.70;6.82;;;;;;;-145.48;100.00;59605.97;6244777;23;20075;-80
2021/01/25 00:52:02;;;;;;;10.88;5.75;;;;;;;-145.48;100.00;59605.97;6245521;23;20000;-81
2021/01/25 00:54:27;;;;;;;9.05;7.15;;;;;;;-145.48;100.00;59605.97;6244390;23;20007;-80
2021/01/25 00:56:52;;;;;;;11.18;7.30;;;;;;;-145.48;100.00;59605.97;6243558;23;20008;-79
2021/01/25 00:59:17;;;;;;;13.23;7.07;;;;;;;-145.48;100.00;59605.97;6242961;23;20008;-80
2021/01/25 01:01:43;;;;;;;10.45;7.70;;;;;;;-145.48;100.00;59605.97;6215229;23;20008;-80
2021/01/25 01:04:08;;;;;;;11.73;7.30;;;;;;;-145.48;100.00;59605.97;6244575;22;20024;-80
2021/01/25 01:06:33;;;;;;;14.70;8.18;;;;;;;-145.48;100.00;59605.97;6244381;23;20061;-81
2021/01/25 01:08:58;;;;;;;13.02;8.15;;;;;;;-145.48;100.00;59605.97;6244994;23;20031;-79
2021/01/25 01:11:24;;;;;;;13.95;8.30;;;;;;;-145.48;100.00;59605.97;6243050;23;20008;-79
2021/01/25 01:13:49;;;;;;;9.82;7.35;;;;;;;-145.48;100.00;59605.97;6216054;23;20079;-80
2021/01/25 01:16:14;;;;;;;20.92;8.32;;;;;;;-145.48;100.00;59605.97;6244289;23;20000;-80
2021/01/25 01:18:39;;;;;;;11.23;8.32;;;;;;;-145.48;100.00;59605.97;6243563;23;20414;-80
2021/01/25 01:21:05;;;;;;;15.18;10.13;;;;;;;-145.48;100.00;59605.97;6218073;23;20004;-80
2021/01/25 01:23:30;;;;;;;18.48;8.63;;;;;;;-145.48;100.00;59605.97;6243746;23;20108;-80
2021/01/25 01:25:56;;;;;;;12.70;9.15;;;;;;;-145.48;100.00;59605.97;6245633;23;20070;-80
2021/01/25 01:28:21;;;;;;;17.50;8.40;;;;;;;-145.48;100.00;59605.97;6243282;23;20071;-80
2021/01/25 01:30:46;;;;;;;10.00;8.45;;;;;;;-145.48;100.00;59605.97;6245239;23;20089;-81
2021/01/25 01:33:11;;;;;;;15.85;9.18;;;;;;;-145.48;100.00;59605.97;6244343;23;20008;-79
2021/01/25 01:35:37;;;;;;;14.05;8.88;;;;;;;-145.48;100.00;59605.97;6245183;23;20039;-80
2021/01/25 01:38:02;;;;;;;17.00;10.25;;;;;;;-145.48;100.00;59605.97;6244780;23;20031;-80
2021/01/25 01:40:27;;;;;;;13.23;9.55;;;;;;;-145.48;100.00;59605.97;6219780;23;20402;-80
2021/01/25 01:42:52;;;;;;;11.65;9.60;;;;;;;-145.48;100.00;59605.97;6246210;23;20087;-79
2021/01/25 01:45:18;;;;;;;14.05;10.85;;;;;;;-145.48;100.00;59605.97;6217566;23;20264;-80
2021/01/25 01:47:44;;;;;;;14.13;10.27;;;;;;;-145.48;100.00;59605.97;6217916;23;20079;-81
2021/01/25 01:50:12;;;;;;;14.98;11.45;;;;;;;-145.48;100.00;59605.97;6217234;23;20008;-80
2021/01/25 01:52:37;;;;;;;17.77;13.07;;;;;;;-145.48;100.00;59605.97;6216841;23;20012;-80
2021/01/25 01:55:03;;;;;;;17.83;12.68;;;;;;;-145.48;100.00;59605.97;6244059;23;20003;-81
2021/01/25 01:57:31;;;;;;;18.08;11.73;;;;;;;-145.48;100.00;59605.97;6246645;23;20060;-80
2021/01/25 01:59:57;;;;;;;18.75;13.30;;;;;;;-145.48;100.00;59605.97;6220259;23;20008;-80
2021/01/25 02:02:22;;;;;;;18.58;13.32;;;;;;;-145.48;100.00;59605.97;6245304;23;20004;-81
2021/01/25 02:04:48;;;;;;;18.35;13.48;;;;;;;-145.48;100.00;59605.97;6249265;22;20436;-81
2021/01/25 02:07:14;;;;;;;24.95;14.77;;;;;;;-145.48;100.00;59605.97;6249221;23;20015;-81
2021/01/25 02:09:45;;;;;;;19.08;13.90;;;;;;;-145.48;100.00;59605.97;6221004;23;20004;-81
2021/01/25 02:12:10;;;;;;;19.25;13.52;;;;;;;-145.48;100.00;59605.97;6249620;23;20004;-80
2021/01/25 02:14:37;;;;;;;18.88;13.20;;;;;;;-145.48;100.00;59605.97;6245315;23;20008;-81
2021/01/25 02:17:03;;;;;;;17.73;12.27;;;;;;;-145.48;100.00;59605.97;6245188;23;20024;-80
2021/01/25 02:19:50;;;;;;;17.20;12.55;;;;;;;-145.48;100.00;59605.97;6245987;23;20004;-80
2021/01/25 02:22:35;;;;;;;17.23;11.55;;;;;;;-145.48;100.00;59605.97;6217413;23;20083;-81
2021/01/25 02:25:35;;;;;;;18.33;11.93;;;;;;;-145.48;100.00;59605.97;6244435;23;20481;-81
2021/01/25 02:28:01;;;;;;;16.98;11.25;;;;;;;-145.48;100.00;59605.97;6243745;23;20000;-80
2021/01/25 02:30:27;;;;;;;16.98;11.52;;;;;;;-145.48;100.00;59605.97;6244226;23;20112;-81
2021/01/25 02:32:56;;;;;;;18.25;12.00;;;;;;;-145.48;100.00;59605.97;6243389;23;20870;-79
2021/01/25 02:35:22;;;;;;;18.83;11.65;;;;;;;-145.48;100.00;59605.97;6216320;23;20012;-79
2021/01/25 02:37:53;;;;;;;16.08;11.73;;;;;;;-145.48;100.00;59605.97;6243099;23;20307;-80
2021/01/25 02:40:21;;;;;;;18.30;12.40;;;;;;;-145.48;100.00;59605.97;6241920;23;20000;-79
2021/01/25 02:42:47;;;;;;;16.65;12.52;;;;;;;-145.48;100.00;59605.97;6243776;23;20000;-80
2021/01/25 02:45:14;;;;;;;18.15;12.00;;;;;;;-145.48;100.00;59605.97;6248744;23;20004;-80
2021/01/25 02:47:40;;;;;;;20.02;12.55;;;;;;;-145.48;100.00;59605.97;6223354;23;20010;-81
2021/01/25 02:50:06;;;;;;;21.10;14.00;;;;;;;-145.48;100.00;59605.97;6244658;23;20083;-80
2021/01/25 02:52:32;;;;;;;18.80;13.55;;;;;;;-145.48;100.00;59605.97;6243155;23;20000;-80
2021/01/25 02:54:57;;;;;;;20.15;13.93;;;;;;;-145.48;100.00;59605.97;6216243;23;20004;-80
2021/01/25 02:57:23;;;;;;;23.63;14.27;;;;;;;-145.48;100.00;59605.97;6241034;23;20011;-80
2021/01/25 02:59:50;;;;;;;18.65;13.23;;;;;;;-145.48;100.00;59605.97;6242408;23;20004;-80
2021/01/25 03:02:15;;;;;;;18.83;13.35;;;;;;;-145.48;100.00;59605.97;6242438;23;20004;-80
2021/01/25 03:04:41;;;;;;;21.05;13.70;;;;;;;-145.48;100.00;59605.97;6243739;23;20043;-80
2021/01/25 03:07:06;;;;;;;18.98;13.60;;;;;;;-145.48;100.00;59605.97;6243947;23;20012;-79
2021/01/25 03:09:33;;;;;;;18.70;14.63;;;;;;;-145.48;100.00;59605.97;6243499;23;20000;-79
2021/01/25 03:12:01;;;;;;;19.58;12.05;;;;;;;-145.48;100.00;59605.97;6242535;23;20034;-80
2021/01/25 03:14:26;;;;;;;16.83;12.10;;;;;;;-145.48;100.00;59605.97;6216140;23;20012;-80
2021/01/25 03:16:51;;;;;;;19.13;12.88;;;;;;;-145.48;100.00;59605.97;6243077;23;20089;-80
2021/01/25 03:19:17;;;;;;;17.92;11.90;;;;;;;-145.48;100.00;59605.97;6244444;23;20046;-80
2021/01/25 03:21:46;;;;;;;15.80;12.52;;;;;;;-145.48;100.00;59605.97;6244381;23;20056;-80
2021/01/25 03:24:12;;;;;;;19.02;13.93;;;;;;;-145.48;100.00;59605.97;6249546;23;20083;-81
2021/01/25 03:26:37;;;;;;;17.92;12.93;;;;;;;-145.48;100.00;59605.97;6249137;23;20012;-80
2021/01/25 03:29:03;;;;;;;22.33;13.63;;;;;;;-145.48;100.00;59605.97;6245987;23;20054;-81
2021/01/25 03:31:28;;;;;;;19.67;12.95;;;;;;;-145.48;100.00;59605.97;6246194;23;20391;-80
2021/01/25 03:33:53;;;;;;;21.20;13.23;;;;;;;-145.48;100.00;59605.97;6248030;23;20000;-81
2021/01/25 03:36:18;;;;;;;23.40;14.43;;;;;;;-145.48;100.00;59605.97;6249733;23;20004;-81
2021/01/25 03:38:44;;;;;;;20.98;13.65;;;;;;;-145.48;100.00;59605.97;6249421;23;20011;-81
2021/01/25 03:41:09;;;;;;;22.50;15.13;;;;;;;-145.48;100.00;59605.97;6217907;23;20012;-81
2021/01/25 03:43:35;;;;;;;21.88;15.60;;;;;;;-145.48;100.00;59605.97;6246888;23;20011;-80
2021/01/25 03:46:00;;;;;;;25.52;17.50;;;;;;;-145.48;100.00;59605.97;6220767;23;20008;-81
2021/01/25 03:48:25;;;;;;;24.58;15.90;;;;;;;-145.48;100.00;59605.97;6248668;23;20125;-81
2021/01/25 03:50:51;;;;;;;23.25;16.67;;;;;;;-145.48;100.00;59605.97;6220473;23;20346;-81
2021/01/25 03:53:16;;;;;;;27.90;16.15;;;;;;;-145.48;100.00;59605.97;6249193;23;20004;-81
2021/01/25 03:55:45;;;;;;;26.13;17.15;;;;;;;-145.48;100.00;59605.97;6254453;23;20063;-81
2021/01/25 03:58:10;;;;;;;29.02;18.98;;;;;;;-145.48;100.00;59605.97;6227206;23;20008;-81
2021/01/25 04:00:35;;;;;;;27.90;18.42;;;;;;;-145.48;100.00;59605.97;6248411;23;20057;-81
2021/01/25 04:03:00;;;;;;;26.02;17.92;;;;;;;-145.48;100.00;59605.97;6250148;23;20000;-80
2021/01/25 04:05:26;;;;;;;32.63;17.63;;;;;;;-145.48;100.00;59605.97;6251745;22;20016;-80
2021/01/25 04:07:51;;;;;;;25.65;16.92;;;;;;;-145.48;100.00;59605.97;6219509;23;20087;-81
2021/01/25 04:10:16;;;;;;;25.77;17.10;;;;;;;-145.48;100.00;59605.97;6226483;23;20000;-80
2021/01/25 04:12:42;;;;;;;25.88;17.40;;;;;;;-145.48;100.00;59605.97;6247100;23;20005;-79
2021/01/25 04:15:07;;;;;;;25.60;17.33;;;;;;;-145.48;100.00;59605.97;6251043;23;20000;-81
2021/01/25 04:17:33;;;;;;;26.40;17.40;;;;;;;-145.48;100.00;59605.97;6252245;23;20027;-81
2021/01/25 04:19:58;;;;;;;25.33;17.10;;;;;;;-145.48;100.00;59605.97;6254235;23;20004;-81
2021/01/25 04:22:26;;;;;;;24.73;17.92;;;;;;;-145.48;100.00;59605.97;6252369;23;20014;-80
2021/01/25 04:24:52;;;;;;;27.40;18.27;;;;;;;-145.48;100.00;59605.97;6250797;23;20031;-80
2021/01/25 04:27:17;;;;;;;23.65;17.23;;;;;;;-145.48;100.00;59605.97;6252422;23;20027;-80
2021/01/25 04:29:42;;;;;;;25.55;17.20;;;;;;;-145.48;100.00;59605.97;6254515;23;20016;-80
2021/01/25 04:32:11;;;;;;;29.20;16.95;;;;;;;-145.48;100.00;59605.97;6227849;23;20007;-80
2021/01/25 04:34:36;;;;;;;28.58;18.67;;;;;;;-145.48;100.00;59605.97;6247260;23;20003;-80
2021/01/25 04:37:02;;;;;;;26.33;16.67;;;;;;;-145.48;100.00;59605.97;6246370;23;20023;-80
2021/01/25 04:39:27;;;;;;;27.63;16.30;;;;;;;-145.48;100.00;59605.97;6247036;23;20004;-81
2021/01/25 04:41:53;;;;;;;24.77;15.60;;;;;;;-145.48;100.00;59605.97;6245314;23;20004;-81
2021/01/25 04:44:21;;;;;;;26.90;17.27;;;;;;;-145.48;100.00;59605.97;6246247;23;20007;-81
2021/01/25 04:46:47;;;;;;;24.40;15.35;;;;;;;-145.48;100.00;59605.97;6245291;23;20008;-80
2021/01/25 04:49:13;;;;;;;27.38;16.42;;;;;;;-145.48;100.00;59605.97;6246661;23;20429;-80
2021/01/25 04:51:40;;;;;;;24.38;15.13;;;;;;;-145.48;100.00;59605.97;6246512;23;20000;-80
2021/01/25 04:54:06;;;;;;;24.85;15.77;;;;;;;-145.48;100.00;59605.97;6247091;23;20003;-80
2021/01/25 04:56:33;;;;;;;27.52;15.88;;;;;;;-145.48;100.00;59605.97;6248296;23;20000;-79
2021/01/25 04:58:58;;;;;;;21.83;14.07;;;;;;;-145.48;100.00;59605.97;6248139;23;20000;-80
2021/01/25 05:01:23;;;;;;;21.83;14.85;;;;;;;-145.48;100.00;59605.97;6247436;23;20087;-80
2021/01/25 05:03:49;;;;;;;20.23;14.95;;;;;;;-145.48;100.00;59605.97;6247752;22;20020;-80
2021/01/25 05:06:14;;;;;;;22.90;14.75;;;;;;;-145.48;100.00;59605.97;6248992;23;20004;-80
2021/01/25 05:08:39;;;;;;;26.02;14.45;;;;;;;-145.48;100.00;59605.97;6248058;23;20004;-80
2021/01/25 05:11:18;;;;;;;23.00;14.80;;;;;;;-145.48;100.00;59605.97;6245982;23;20738;-80
2021/01/25 05:13:44;;;;;;;29.55;14.70;;;;;;;-145.48;100.00;59605.97;6218080;23;20041;-79
2021/01/25 05:16:19;;;;;;;25.38;15.23;;;;;;;-145.48;100.00;59605.97;6244638;23;20070;-79
2021/01/25 05:18:46;;;;;;;20.10;11.75;;;;;;;-145.48;100.00;59605.97;6217474;23;20491;-80
2021/01/25 05:21:11;;;;;;;25.77;16.33;;;;;;;-145.48;100.00;59605.97;6244633;23;20004;-79
2021/01/25 05:23:38;;;;;;;27.27;15.35;;;;;;;-145.48;100.00;59605.97;6244260;23;20008;-80
2021/01/25 05:26:05;;;;;;;25.25;15.32;;;;;;;-145.48;100.00;59605.97;6244553;23;20378;-80
2021/01/25 05:28:39;;;;;;;28.63;17.30;;;;;;;-145.48;100.00;59605.97;6244616;23;20011;-81
2021/01/25 05:31:16;;;;;;;25.27;15.88;;;;;;;-145.48;100.00;59605.97;6244639;23;20019;-80
2021/01/25 05:33:42;;;;;;;24.08;16.60;;;;;;;-145.48;100.00;59605.97;6217345;23;20019;-80
2021/01/25 05:36:07;;;;;;;22.50;15.50;;;;;;;-145.48;100.00;59605.97;6244582;23;20000;-80
2021/01/25 05:38:32;;;;;;;26.48;15.88;;;;;;;-145.48;100.00;59605.97;6244760;23;20011;-80
2021/01/25 05:40:58;;;;;;;28.42;16.65;;;;;;;-145.48;100.00;59605.97;6244694;23;20322;-81
2021/01/25 05:43:31;;;;;;;26.30;16.65;;;;;;;-145.48;100.00;59605.97;6243947;23;20015;-79
2021/01/25 05:46:05;;;;;;;24.73;16.13;;;;;;;-145.48;100.00;59605.97;6216693;23;20004;-79
2021/01/25 05:48:30;;;;;;;27.83;17.90;;;;;;;-145.48;100.00;59605.97;6216702;23;20012;-81
2021/01/25 05:50:56;;;;;;;29.15;16.15;;;;;;;-145.48;100.00;59605.97;6212994;23;20004;-80
2021/01/25 05:53:21;;;;;;;29.15;17.13;;;;;;;-145.48;100.00;59605.97;6243202;23;20111;-80
2021/01/25 05:55:46;;;;;;;29.15;17.38;;;;;;;-145.48;100.00;59605.97;6217796;23;20070;-81
2021/01/25 05:58:12;;;;;;;28.88;17.23;;;;;;;-145.48;100.00;59605.97;6244252;23;20004;-81
2021/01/25 06:00:38;;;;;;;32.00;19.38;;;;;;;-145.48;100.00;59605.97;6217796;23;20023;-81
2021/01/25 06:03:06;;;;;;;32.08;19.58;;;;;;;-145.48;100.00;59605.97;6216866;23;20004;-80
2021/01/25 06:05:32;;;;;;;34.22;19.80;;;;;;;-145.48;100.00;59605.97;6243536;23;20536;-80
2021/01/25 06:08:03;;;;;;;33.38;19.95;;;;;;;-145.48;100.00;59605.97;6243142;23;20000;-80
2021/01/25 06:10:57;;;;;;;32.95;19.08;;;;;;;-145.48;100.00;59605.97;6244593;23;20000;-80
2021/01/25 06:13:29;;;;;;;33.00;19.40;;;;;;;-145.48;100.00;59605.97;6244247;23;20069;-81
2021/01/25 06:15:57;;;;;;;32.05;19.80;;;;;;;-145.48;100.00;59605.97;6243538;23;20018;-81
2021/01/25 06:18:22;;;;;;;41.30;20.70;;;;;;;-145.48;100.00;59605.97;6243868;23;20014;-80
2021/01/25 06:20:54;;;;;;;31.88;19.90;;;;;;;-145.48;100.00;59605.97;6242900;23;20497;-81
2021/01/25 06:23:20;;;;;;;40.38;21.88;;;;;;;-145.48;100.00;59605.97;6217341;23;20346;-81
2021/01/25 06:25:46;;;;;;;36.05;20.33;;;;;;;-145.48;100.00;59605.97;6245703;23;20004;-81
2021/01/25 06:28:15;;;;;;;35.17;18.83;;;;;;;-145.48;100.00;59605.97;6246519;23;20013;-82
2021/01/25 06:30:44;;;;;;;36.85;20.65;;;;;;;-145.48;100.00;59605.97;6246814;23;20000;-82
2021/01/25 06:33:17;;;;;;;37.97;22.02;;;;;;;-145.48;100.00;59605.97;6246210;23;20382;-80
2021/01/25 06:35:49;;;;;;;39.85;21.98;;;;;;;-145.48;100.00;59605.97;6213580;23;20015;-81
2021/01/25 06:38:17;;;;;;;34.80;21.45;;;;;;;-145.48;100.00;59605.97;6208456;23;20061;-80
2021/01/25 06:40:43;;;;;;;44.13;23.38;;;;;;;-145.48;100.00;59605.97;6236796;23;20092;-81
2021/01/25 06:43:10;;;;;;;34.65;21.52;;;;;;;-145.48;100.00;59605.97;6238959;23;20023;-80
2021/01/25 06:45:37;;;;;;;37.80;23.02;;;;;;;-145.48;100.00;59605.97;6243878;23;20015;-81
2021/01/25 06:48:05;;;;;;;44.28;22.42;;;;;;;-145.48;100.00;59605.97;6221043;23;20414;-81
2021/01/25 06:50:31;;;;;;;37.72;22.60;;;;;;;-145.48;100.00;59605.97;6247490;23;20703;-81
2021/01/25 06:52:56;;;;;;;38.25;21.58;;;;;;;-145.48;100.00;59605.97;6244128;23;20371;-81
2021/01/25 06:55:22;;;;;;;42.85;22.92;;;;;;;-145.48;100.00;59605.97;6243224;23;20726;-81
2021/01/25 06:57:58;;;;;;;43.30;23.95;;;;;;;-145.48;100.00;59605.97;6244650;23;20011;-81
2021/01/25 07:00:24;;;;;;;;;;;;;;;-145.48;100.00;59605.97;6240086;23;20477;-82
2021/01/25 07:02:51;;;;;;;39.05;20.92;;;;;;;-145.48;100.00;59605.97;6243375;23;19922;-80
2021/01/25 07:05:21;;;;;;;39.28;20.67;;;;;;;-145.48;100.00;59605.97;6246810;22;20027;-80
2021/01/25 07:07:46;;;;;;;36.75;22.40;;;;;;;-145.48;100.00;59605.97;6243873;23;20000;-82
2021/01/25 07:10:16;;;;;;;37.50;21.08;;;;;;;-145.48;100.00;59605.97;6244630;23;20488;-81
2021/01/25 07:12:41;;;;;;;40.13;22.60;;;;;;;-145.48;100.00;59605.97;6243683;23;20022;-81
2021/01/25 07:15:08;;;;;;;41.35;23.58;;;;;;;-145.48;100.00;59605.97;6244376;23;20078;-81
2021/01/25 07:17:35;;;;;;;37.40;22.83;;;;;;;-145.48;100.00;59605.97;6242883;23;20000;-81
2021/01/25 07:20:00;;;;;;;39.80;22.83;;;;;;;-145.48;100.00;59605.97;6217854;23;20004;-80
2021/01/25 07:22:28;;;;;;;36.95;21.80;;;;;;;-145.48;100.00;59605.97;6220585;23;20076;-80
2021/01/25 07:24:55;;;;;;;40.95;21.05;;;;;;;-145.48;100.00;59605.97;6219593;23;20086;-82
2021/01/25 07:27:20;;;;;;;35.92;21.23;;;;;;;-145.48;100.00;59605.97;6239848;23;20004;-80
2021/01/25 07:29:46;;;;;;;45.35;25.05;;;;;;;-145.48;100.00;59605.97;6186754;23;20799;-79
2021/01/25 07:32:12;;;;;;;44.75;25.25;;;;;;;-145.48;100.00;59605.97;6210440;23;20004;-79
2021/01/25 07:34:38;;;;;;;36.75;22.10;;;;;;;-145.48;100.00;59605.97;6215909;23;20442;-80
2021/01/25 07:37:03;;;;;;;47.65;24.27;;;;;;;-145.48;100.00;59605.97;6244463;23;20062;-80
2021/01/25 07:39:29;;;;;;;34.95;21.27;;;;;;;-145.48;100.00;59605.97;6244149;23;20027;-80
2021/01/25 07:41:56;;;;;;;35.47;20.75;;;;;;;-145.48;100.00;59605.97;6243808;23;20012;-80
2021/01/25 07:44:21;;;;;;;36.65;22.17;;;;;;;-145.48;100.00;59605.97;6248968;23;20008;-80
2021/01/25 07:46:49;;;;;;;37.78;21.27;;;;;;;-145.48;100.00;59605.97;6235349;23;20008;-81
2021/01/25 07:49:25;;;;;;;36.67;21.85;;;;;;;-145.48;100.00;59605.97;6217216;23;20069;-81
2021/01/25 07:51:50;;;;;;;35.65;20.95;;;;;;;-145.48;100.00;59605.97;6245892;23;20401;-81
2021/01/25 07:54:15;;;;;;;32.25;20.77;;;;;;;-145.48;100.00;59605.97;6220033;23;20012;-81
2021/01/25 07:56:41;;;;;;;36.10;19.98;;;;;;;-145.48;100.00;59605.97;6246637;23;20019;-80
2021/01/25 07:59:08;;;;;;;37.25;19.52;;;;;;;-145.48;100.00;59605.97;6216784;23;20103;-80
2021/01/25 08:01:41;;;;;;;32.60;19.08;;;;;;;-145.48;100.00;59605.97;6217143;23;20015;-81
2021/01/25 08:04:11;;;;;;;39.08;21.35;;;;;;;-145.48;100.00;59605.97;6244441;22;20020;-81
2021/01/25 08:06:36;;;;;;;32.85;20.20;;;;;;;-145.48;100.00;59605.97;6242044;23;20014;-80
2021/01/25 08:09:05;;;;;;;32.50;18.70;;;;;;;-145.48;100.00;59605.97;6216362;23;20426;-80
2021/01/25 08:11:32;;;;;;;34.72;19.73;;;;;;;-145.48;100.00;59605.97;6241786;23;20011;-80
2021/01/25 08:14:25;;;;;;;32.13;21.27;;;;;;;-145.48;100.00;59605.97;6242687;23;20008;-80
2021/01/25 08:16:58;;;;;;;32.40;18.80;;;;;;;-145.48;100.00;59605.97;6246675;23;20016;-82
2021/01/25 08:20:03;;;;;;;32.72;19.17;;;;;;;-145.48;100.00;59605.97;6247970;23;20006;-82
2021/01/25 08:22:56;;;;;;;32.33;18.85;;;;;;;-145.48;100.00;59605.97;6245557;23;20065;-80
2021/01/25 08:25:40;;;;;;;29.38;19.20;;;;;;;-145.48;100.00;59605.97;6216326;23;20018;-83
2021/01/25 08:28:07;;;;;;;32.05;19.33;;;;;;;-145.48;100.00;59605.97;6239464;23;20008;-80
2021/01/25 08:30:38;;;;;;;33.53;19.33;;;;;;;-145.48;100.00;59605.97;6243958;23;20011;-81
2021/01/25 08:33:07;;;;;;;34.88;19.52;;;;;;;-145.48;100.00;59605.97;6217792;23;20078;-80
2021/01/25 08:35:34;;;;;;;34.13;18.88;;;;;;;-145.48;100.00;59605.97;6245101;23;20007;-80
2021/01/25 08:38:25;;;;;;;32.35;19.90;;;;;;;-145.48;100.00;59605.97;6244943;23;20018;-79
2021/01/25 08:40:52;;;;;;;30.23;17.80;;;;;;;-145.48;100.00;59605.97;6235815;23;20019;-80
2021/01/25 08:43:32;;;;;;;35.33;18.75;;;;;;;-145.48;100.00;59605.97;6232850;23;20083;-81
2021/01/25 08:46:12;;;;;;;33.90;18.25;;;;;;;-145.48;100.00;59605.97;6218608;23;20008;-84
2021/01/25 08:48:37;;;;;;;30.20;17.55;;;;;;;-145.48;100.00;59605.97;6218816;23;20008;-80
2021/01/25 08:51:14;;;;;;;34.38;19.92;;;;;;;-145.48;100.00;59605.97;6217978;23;20104;-80
2021/01/25 08:53:40;;;;;;;39.50;19.55;;;;;;;-145.48;100.00;59605.97;6245182;23;20103;-81
2021/01/25 08:56:17;;;;;;;37.25;19.50;;;;;;;-145.48;100.00;59605.97;6245191;23;20800;-81
2021/01/25 08:58:42;;;;;;;28.80;17.10;;;;;;;-145.48;100.00;59605.97;6246445;23;20012;-82
2021/01/25 09:01:13;;;;;;;31.88;18.85;;;;;;;-145.48;100.00;59605.97;6217632;23;20061;-81
2021/01/25 09:03:38;;;;;;;34.70;17.80;;;;;;;-145.48;100.00;59605.97;6246521;22;20435;-80
2021/01/25 09:06:05;;;;;;;30.45;16.67;;;;;;;-145.48;100.00;59605.97;6245063;23;20019;-82
2021/01/25 09:08:30;;;;;;;32.92;16.92;;;;;;;-145.48;100.00;59605.97;6246066;23;20004;-81
2021/01/25 09:10:57;;;;;;;33.33;17.77;;;;;;;-145.48;100.00;59605.97;6247289;23;20011;-80
2021/01/25 09:13:22;;;;;;;33.88;19.00;;;;;;;-145.48;100.00;59605.97;6247924;23;20003;-82
2021/01/25 09:15:47;;;;;;;25.65;16.25;;;;;;;-145.48;100.00;59605.97;6248368;23;20000;-81
2021/01/25 09:18:13;;;;;;;33.45;18.45;;;;;;;-145.48;100.00;59605.97;6247741;23;20004;-81
2021/01/25 09:20:38;;;;;;;32.20;19.33;;;;;;;-145.48;100.00;59605.97;6247181;23;20111;-81
2021/01/25 09:23:04;;;;;;;30.23;16.90;;;;;;;-145.48;100.00;59605.97;6222350;23;20003;-82
2021/01/25 09:25:31;;;;;;;34.75;18.02;;;;;;;-145.48;100.00;59605.97;6249270;23;20030;-81
2021/01/25 09:27:56;;;;;;;34.42;19.15;;;;;;;-145.48;100.00;59605.97;6248289;23;20079;-81
2021/01/25 09:30:22;;;;;;;27.88;16.00;;;;;;;-145.48;100.00;59605.97;6224557;23;20004;-82
2021/01/25 09:32:47;;;;;;;24.70;16.05;;;;;;;-145.48;100.00;59605.97;6245881;23;20007;-81
2021/01/25 09:35:49;;;;;;;22.48;14.15;;;;;;;-145.48;100.00;59605.97;6246720;23;20074;-83
2021/01/25 09:38:15;;;;;;;23.05;13.10;;;;;;;-145.48;100.00;59605.97;6219762;23;20000;-83
2021/01/25 09:40:40;;;;;;;21.48;13.60;;;;;;;-145.48;100.00;59605.97;6245538;23;20010;-81
2021/01/25 09:43:05;;;;;;;18.45;11.15;;;;;;;-145.48;100.00;59605.97;6246394;23;20004;-82
2021/01/25 09:45:31;;;;;;;19.10;11.20;;;;;;;-145.48;100.00;59605.97;6217333;23;20007;-81
2021/01/25 09:47:58;;;;;;;21.60;11.57;;;;;;;-145.48;100.00;59605.97;6244147;23;20042;-81
2021/01/25 09:50:23;;;;;;;18.15;10.60;;;;;;;-145.48;100.00;59605.97;6243779;23;20050;-83
2021/01/25 09:52:48;;;;;;;13.98;9.95;;;;;;;-145.48;100.00;59605.97;6218857;23;20004;-81
2021/01/25 09:55:16;;;;;;;22.85;10.05;;;;;;;-145.48;100.00;59605.97;6242772;23;20343;-83
2021/01/25 09:57:41;;;;;;;14.02;9.23;;;;;;;-145.48;100.00;59605.97;6219235;23;20007;-80
2021/01/25 10:00:09;;;;;;;13.60;8.43;;;;;;;-145.48;100.00;59605.97;6243214;23;20054;-82
2021/01/25 10:02:35;;;;;;;14.63;9.05;;;;;;;-145.48;100.00;59605.97;6216972;23;20091;-83
2021/01/25 10:05:00;;;;;;;17.95;9.77;;;;;;;-145.48;100.00;59605.97;6213866;23;20032;-83
2021/01/25 10:07:25;;;;;;;15.38;9.13;;;;;;;-145.48;100.00;59605.97;6215492;23;20016;-84
2021/01/25 10:10:46;;;;;;;19.33;10.70;;;;;;;-145.48;100.00;59605.97;6213202;23;20027;-84
2021/01/25 10:13:18;;;;;;;17.23;9.02;;;;;;;-145.48;100.00;59605.97;6215791;23;20520;-84
2021/01/25 10:16:03;;;;;;;15.57;10.00;;;;;;;-145.48;100.00;59605.97;6130105;23;20330;-81
2021/01/25 10:18:29;;;;;;;12.25;8.32;;;;;;;-145.48;100.00;59605.97;6214832;23;20005;-82
2021/01/25 10:20:54;;;;;;;23.35;12.25;;;;;;;-145.48;100.00;59605.97;6214891;23;20027;-84
2021/01/25 10:23:20;;;;;;;21.70;12.25;;;;;;;-145.48;100.00;59605.97;6213396;23;20008;-82
2021/01/25 10:25:46;;;;;;;16.60;10.35;;;;;;;-145.48;100.00;59605.97;6215063;23;20074;-82
2021/01/25 10:28:11;;;;;;;17.42;11.35;;;;;;;-145.48;100.00;59605.97;6213026;23;20008;-82
2021/01/25 10:30:37;;;;;;;15.85;10.20;;;;;;;-145.48;100.00;59605.97;6212649;23;20001;-83
2021/01/25 10:33:02;;;;;;;14.02;9.80;;;;;;;-145.48;100.00;59605.97;6212250;23;20016;-81
2021/01/25 10:35:28;;;;;;;13.77;8.45;;;;;;;-145.48;100.00;59605.97;6216246;23;20036;-81
2021/01/25 10:37:53;;;;;;;11.25;8.00;;;;;;;-145.48;100.00;59605.97;6212527;23;20024;-82
2021/01/25 10:40:19;;;;;;;10.68;6.38;;;;;;;-145.48;100.00;59605.97;6216221;23;20005;-84
2021/01/25 10:42:45;;;;;;;13.05;7.18;;;;;;;-145.48;100.00;59605.97;6214072;23;20139;-84
2021/01/25 10:45:11;;;;;;;11.35;6.68;;;;;;;-145.48;100.00;59605.97;6212857;23;20092;-82
2021/01/25 10:47:38;;;;;;;13.65;6.65;;;;;;;-145.48;100.00;59605.97;6212997;23;20097;-80
2021/01/25 10:50:05;;;;;;;9.45;6.38;;;;;;;-145.48;100.00;59605.97;6215396;23;19996;-83
2021/01/25 10:52:33;;;;;;;11.82;6.72;;;;;;;-145.48;100.00;59605.97;6212080;23;20032;-81
2021/01/25 10:54:58;;;;;;;10.65;7.13;;;;;;;-145.48;100.00;59605.97;6213572;23;20080;-81
2021/01/25 10:57:23;;;;;;;10.38;6.05;;;;;;;-145.48;100.00;59605.97;6212909;23;20024;-81
2021/01/25 10:59:48;;;;;;;14.27;7.57;;;;;;;-145.48;100.00;59605.97;6212902;23;20005;-81